createdAt,value
2019-01-17T00:00:26.789Z,7.83
2019-01-17T00:02:56.983Z,5.70
2019-01-17T00:05:43.413Z,5.83
2019-01-17T00:08:29.783Z,6.53
2019-01-17T00:11:14.953Z,7.90
2019-01-17T00:14:01.584Z,9.10
2019-01-17T00:16:31.682Z,6.43
2019-01-17T00:19:01.797Z,6.63
2019-01-17T00:21:47.217Z,6.30
2019-01-17T00:24:33.900Z,7.20
2019-01-17T00:27:03.991Z,8.10
2019-01-17T00:29:33.804Z,7.33
2019-01-17T00:32:03.562Z,7.67
2019-01-17T00:34:36.457Z,8.23
2019-01-17T00:37:10.531Z,7.43
2019-01-17T00:39:46.621Z,7.10
2019-01-17T00:42:16.391Z,6.47
2019-01-17T00:45:02.721Z,7.37
2019-01-17T00:47:44.645Z,7.30
2019-01-17T00:50:17.545Z,7.00
2019-01-17T00:52:56.453Z,6.53
2019-01-17T00:55:29.274Z,6.20
2019-01-17T00:58:15.097Z,6.90
2019-01-17T01:00:54.059Z,6.63
2019-01-17T01:03:40.350Z,8.67
2019-01-17T01:06:10.143Z,5.97
2019-01-17T01:08:39.925Z,5.53
2019-01-17T01:11:24.988Z,7.63
2019-01-17T01:14:10.402Z,8.87
2019-01-17T01:16:59.573Z,6.30
2019-01-17T01:19:47.559Z,6.90
2019-01-17T01:22:23.469Z,8.47
2019-01-17T01:25:05.233Z,8.33
2019-01-17T01:27:35.029Z,5.57
2019-01-17T01:30:21.300Z,8.17
2019-01-17T01:32:54.059Z,7.93
2019-01-17T01:35:24.182Z,7.57
2019-01-17T01:37:56.713Z,6.53
2019-01-17T01:40:38.615Z,6.70
2019-01-17T01:43:11.499Z,14.57
2019-01-17T01:45:59.669Z,6.20
2019-01-17T01:48:29.775Z,6.77
2019-01-17T01:51:05.508Z,6.27
2019-01-17T01:53:34.223Z,6.87
2019-01-17T01:56:02.420Z,8.07
2019-01-17T01:58:30.571Z,8.63
2019-01-17T02:00:59.104Z,6.70
2019-01-17T02:03:27.601Z,6.77
2019-01-17T02:05:56.127Z,6.50
2019-01-17T02:08:24.256Z,9.43
2019-01-17T02:10:52.480Z,6.80
2019-01-17T02:13:21.271Z,6.73
2019-01-17T02:15:49.716Z,8.13
2019-01-17T02:18:18.179Z,11.27
2019-01-17T02:20:46.740Z,9.17
2019-01-17T02:23:14.876Z,7.17
2019-01-17T02:25:43.108Z,9.07
2019-01-17T02:28:11.834Z,10.23
2019-01-17T02:30:39.973Z,9.93
2019-01-17T02:33:08.118Z,7.90
2019-01-17T02:35:36.355Z,8.67
2019-01-17T02:38:04.892Z,11.73
2019-01-17T02:40:33.047Z,10.37
2019-01-17T02:43:01.626Z,11.77
2019-01-17T02:45:30.080Z,11.97
2019-01-17T02:47:58.577Z,11.10
2019-01-17T02:50:27.036Z,13.00
2019-01-17T02:52:55.539Z,10.07
2019-01-17T02:55:24.329Z,13.13
2019-01-17T02:57:52.821Z,12.57
2019-01-17T03:00:21.283Z,14.23
2019-01-17T03:02:49.672Z,13.40
2019-01-17T03:05:18.169Z,10.33
2019-01-17T03:07:46.319Z,14.27
2019-01-17T03:10:15.523Z,11.60
2019-01-17T03:12:43.736Z,10.67
2019-01-17T03:15:12.455Z,12.37
2019-01-17T03:17:41.045Z,14.17
2019-01-17T03:20:12.178Z,10.47
2019-01-17T03:22:40.653Z,11.70
2019-01-17T03:25:10.682Z,10.20
2019-01-17T03:27:39.514Z,12.00
2019-01-17T03:30:09.199Z,14.27
2019-01-17T03:32:37.706Z,12.87
2019-01-17T03:35:06.161Z,12.30
2019-01-17T03:37:34.281Z,16.83
2019-01-17T03:40:02.763Z,15.50
2019-01-17T03:42:31.610Z,10.43
2019-01-17T03:45:00.178Z,11.70
2019-01-17T03:47:28.405Z,16.27
2019-01-17T03:49:56.544Z,12.90
2019-01-17T03:52:25.024Z,15.23
2019-01-17T03:54:54.094Z,15.47
2019-01-17T03:57:22.416Z,11.97
2019-01-17T03:59:50.558Z,14.00
2019-01-17T04:02:18.724Z,14.07
2019-01-17T04:04:47.150Z,11.43
2019-01-17T04:07:15.722Z,16.50
2019-01-17T04:09:44.184Z,14.33
2019-01-17T04:12:12.326Z,14.27
2019-01-17T04:14:40.476Z,14.43
2019-01-17T04:17:08.622Z,16.10
2019-01-17T04:19:36.791Z,13.30
2019-01-17T04:22:04.997Z,10.10
2019-01-17T04:24:33.774Z,12.10
2019-01-17T04:27:02.238Z,10.03
2019-01-17T04:29:30.717Z,11.53
2019-01-17T04:31:58.852Z,11.13
2019-01-17T04:34:27.023Z,12.10
2019-01-17T04:36:55.142Z,10.93
2019-01-17T04:39:23.266Z,10.93
2019-01-17T04:41:51.761Z,11.87
2019-01-17T04:44:20.248Z,10.27
2019-01-17T04:46:49.079Z,13.90
2019-01-17T04:49:17.571Z,12.73
2019-01-17T04:51:46.068Z,10.33
2019-01-17T04:54:14.617Z,10.10
2019-01-17T04:56:43.071Z,10.30
2019-01-17T04:59:11.305Z,10.40
2019-01-17T05:01:39.771Z,12.17
2019-01-17T05:04:07.939Z,10.80
2019-01-17T05:06:36.067Z,8.70
2019-01-17T05:09:05.870Z,12.33
2019-01-17T05:11:34.031Z,8.63
2019-01-17T05:14:02.501Z,10.17
2019-01-17T05:16:31.047Z,9.20
2019-01-17T05:18:59.521Z,11.57
2019-01-17T05:21:27.664Z,8.40
2019-01-17T05:23:55.798Z,8.63
2019-01-17T05:26:24.293Z,7.90
2019-01-17T05:28:52.742Z,7.73
2019-01-17T05:31:21.283Z,7.77
2019-01-17T05:33:49.755Z,7.60
2019-01-17T05:36:18.206Z,8.67
2019-01-17T05:38:46.360Z,7.83
2019-01-17T05:41:15.273Z,8.13
2019-01-17T05:43:43.743Z,8.77
2019-01-17T05:46:12.645Z,11.77
2019-01-17T05:48:41.100Z,10.53
2019-01-17T05:51:09.587Z,8.60
2019-01-17T05:53:37.765Z,8.67
2019-01-17T05:56:06.218Z,7.57
2019-01-17T05:58:34.357Z,8.93
2019-01-17T06:01:02.497Z,9.07
2019-01-17T06:03:30.700Z,8.77
2019-01-17T06:05:59.169Z,7.60
2019-01-17T06:08:27.675Z,8.87
2019-01-17T06:10:56.131Z,7.33
2019-01-17T06:13:24.715Z,7.83
2019-01-17T06:15:52.933Z,8.47
2019-01-17T06:18:21.392Z,7.30
2019-01-17T06:20:49.874Z,11.63
2019-01-17T06:23:18.636Z,6.60
2019-01-17T06:25:46.780Z,10.27
2019-01-17T06:28:15.262Z,7.80
2019-01-17T06:30:44.083Z,7.17
2019-01-17T06:33:12.235Z,9.40
2019-01-17T06:35:40.369Z,8.90
2019-01-17T06:38:08.828Z,8.83
2019-01-17T06:40:36.995Z,8.63
2019-01-17T06:43:05.165Z,9.73
2019-01-17T06:45:33.310Z,14.30
2019-01-17T06:48:01.778Z,9.50
2019-01-17T06:50:30.242Z,9.97
2019-01-17T06:52:58.719Z,8.50
2019-01-17T06:55:27.268Z,9.33
2019-01-17T06:57:55.391Z,9.50
2019-01-17T07:00:23.546Z,9.67
2019-01-17T07:02:51.682Z,12.10
2019-01-17T07:05:19.852Z,10.97
2019-01-17T07:07:48.658Z,11.27
2019-01-17T07:10:18.658Z,14.47
2019-01-17T07:12:47.462Z,19.20
2019-01-17T07:15:15.666Z,15.97
2019-01-17T07:17:43.808Z,17.97
2019-01-17T07:20:13.427Z,16.27
2019-01-17T07:22:42.042Z,15.73
2019-01-17T07:25:11.253Z,17.63
2019-01-17T07:27:39.504Z,14.23
2019-01-17T07:30:12.489Z,13.30
2019-01-17T07:32:40.933Z,11.87
2019-01-17T07:35:10.161Z,13.80
2019-01-17T07:37:38.322Z,11.23
2019-01-17T07:40:09.466Z,13.47
2019-01-17T07:42:37.948Z,12.90
2019-01-17T07:45:07.640Z,9.60
2019-01-17T07:47:36.095Z,12.27
2019-01-17T07:50:05.773Z,11.97
2019-01-17T07:52:34.243Z,11.73
2019-01-17T07:55:02.396Z,15.77
2019-01-17T07:57:30.527Z,11.90
2019-01-17T07:59:58.953Z,13.83
2019-01-17T08:02:27.438Z,14.83
2019-01-17T08:04:55.891Z,13.23
2019-01-17T08:07:24.050Z,11.73
2019-01-17T08:09:52.255Z,13.37
2019-01-17T08:12:20.421Z,16.77
2019-01-17T08:14:48.546Z,12.27
2019-01-17T08:17:16.697Z,13.63
2019-01-17T08:19:44.847Z,11.50
2019-01-17T08:22:12.969Z,17.23
2019-01-17T08:24:41.715Z,13.17
2019-01-17T08:27:10.326Z,12.57
2019-01-17T08:29:38.825Z,14.23
2019-01-17T08:32:06.955Z,12.73
2019-01-17T08:34:35.124Z,14.17
2019-01-17T08:37:03.350Z,11.50
2019-01-17T08:39:31.874Z,10.53
2019-01-17T08:42:00.022Z,10.10
2019-01-17T08:44:28.487Z,8.73
2019-01-17T08:46:56.963Z,9.43
2019-01-17T08:49:25.119Z,10.73
2019-01-17T08:51:53.252Z,13.43
2019-01-17T08:54:21.661Z,11.97
2019-01-17T08:56:50.297Z,11.20
2019-01-17T08:59:18.785Z,14.10
2019-01-17T09:01:47.262Z,12.53
2019-01-17T09:04:15.759Z,9.57
2019-01-17T09:06:44.228Z,9.67
2019-01-17T09:09:12.714Z,9.70
2019-01-17T09:11:41.200Z,9.57
2019-01-17T09:14:09.672Z,7.90
2019-01-17T09:16:38.159Z,9.13
2019-01-17T09:19:06.632Z,10.10
2019-01-17T09:21:35.180Z,10.53
2019-01-17T09:24:04.009Z,7.97
2019-01-17T09:26:32.608Z,8.80
2019-01-17T09:29:01.068Z,9.57
2019-01-17T09:31:29.523Z,7.60
2019-01-17T09:33:58.347Z,9.53
2019-01-17T09:36:26.884Z,12.43
2019-01-17T09:38:55.817Z,10.57
2019-01-17T09:41:24.273Z,7.53
2019-01-17T09:43:52.775Z,10.63
2019-01-17T09:46:21.274Z,9.60
2019-01-17T09:48:49.438Z,11.20
2019-01-17T09:51:17.988Z,11.50
2019-01-17T09:53:46.160Z,11.13
2019-01-17T09:56:15.016Z,13.33
2019-01-17T09:58:43.956Z,9.70
2019-01-17T10:01:12.101Z,9.60
2019-01-17T10:03:41.022Z,10.20
2019-01-17T10:06:09.797Z,8.13
2019-01-17T10:08:38.691Z,9.70
2019-01-17T10:11:07.094Z,8.23
2019-01-17T10:13:35.559Z,8.67
2019-01-17T10:16:07.175Z,8.50
2019-01-17T10:19:02.497Z,8.27
2019-01-17T10:21:52.071Z,9.50
2019-01-17T10:24:44.872Z,9.83
2019-01-17T10:27:42.493Z,8.57
2019-01-17T10:30:14.951Z,9.47
2019-01-17T10:32:55.583Z,9.30
2019-01-17T10:36:09.080Z,11.43
2019-01-17T10:38:38.793Z,12.33
2019-01-17T10:41:20.556Z,10.57
2019-01-17T10:43:56.738Z,8.53
2019-01-17T10:46:44.905Z,10.47
2019-01-17T10:49:34.350Z,10.33
2019-01-17T10:52:22.623Z,8.37
2019-01-17T10:55:17.723Z,8.93
2019-01-17T10:58:05.665Z,8.83
2019-01-17T11:00:41.481Z,9.20
2019-01-17T11:03:13.644Z,8.60
2019-01-17T11:05:43.874Z,9.50
2019-01-17T11:08:13.610Z,8.57
2019-01-17T11:10:43.301Z,8.17
2019-01-17T11:13:36.458Z,9.70
2019-01-17T11:16:15.092Z,10.47
2019-01-17T11:18:49.534Z,8.77
2019-01-17T11:21:30.265Z,7.97
2019-01-17T11:24:10.564Z,6.87
2019-01-17T11:26:51.019Z,9.93
2019-01-17T11:29:53.125Z,10.80
2019-01-17T11:32:30.898Z,8.80
2019-01-17T11:35:02.472Z,9.43
2019-01-17T11:37:36.868Z,9.57
2019-01-17T11:40:23.477Z,9.63
2019-01-17T11:43:02.283Z,7.87
2019-01-17T11:45:34.940Z,6.63
2019-01-17T11:48:36.664Z,6.50
2019-01-17T11:51:13.980Z,6.43
2019-01-17T11:54:12.324Z,5.27
2019-01-17T11:56:42.008Z,6.53
2019-01-17T11:59:16.182Z,5.10
2019-01-17T12:01:45.970Z,5.50
2019-01-17T12:04:18.618Z,4.73
2019-01-17T12:06:46.775Z,5.77
2019-01-17T12:09:14.938Z,5.47
2019-01-17T12:11:43.084Z,5.27
2019-01-17T12:14:11.582Z,4.73
2019-01-17T12:16:39.973Z,4.00
2019-01-17T12:19:08.549Z,5.33
2019-01-17T12:21:36.665Z,5.23
2019-01-17T12:24:05.127Z,4.33
2019-01-17T12:26:33.624Z,4.00
2019-01-17T12:29:01.762Z,3.60
2019-01-17T12:31:29.989Z,3.17
2019-01-17T12:33:58.128Z,4.60
2019-01-17T12:36:26.302Z,3.57
2019-01-17T12:38:54.736Z,3.80
2019-01-17T12:41:23.207Z,3.77
2019-01-17T12:43:51.602Z,3.30
2019-01-17T12:46:19.749Z,2.90
2019-01-17T12:48:47.904Z,5.30
2019-01-17T12:51:16.454Z,2.70
2019-01-17T12:53:44.963Z,1.70
2019-01-17T12:56:13.422Z,1.57
2019-01-17T12:58:41.592Z,2.13
2019-01-17T13:01:09.725Z,2.47
2019-01-17T13:03:37.909Z,2.77
2019-01-17T13:06:06.129Z,3.37
2019-01-17T13:08:34.707Z,3.57
2019-01-17T13:11:03.230Z,2.77
2019-01-17T13:13:31.690Z,1.70
2019-01-17T13:15:59.917Z,2.47
2019-01-17T13:18:28.079Z,4.73
2019-01-17T13:20:58.294Z,2.17
2019-01-17T13:23:26.767Z,2.10
2019-01-17T13:25:55.664Z,2.73
2019-01-17T13:28:23.796Z,2.37
2019-01-17T13:30:51.958Z,2.43
2019-01-17T13:33:21.022Z,1.93
2019-01-17T13:35:49.916Z,2.63
2019-01-17T13:38:18.091Z,3.60
2019-01-17T13:40:46.329Z,2.80
2019-01-17T13:43:15.130Z,2.13
2019-01-17T13:45:43.686Z,2.50
2019-01-17T13:48:12.265Z,1.93
2019-01-17T13:50:40.457Z,3.70
2019-01-17T13:53:09.030Z,5.13
2019-01-17T13:55:37.579Z,3.23
2019-01-17T13:58:06.074Z,3.13
2019-01-17T14:00:34.588Z,3.37
2019-01-17T14:03:02.746Z,3.27
2019-01-17T14:05:31.278Z,6.47
2019-01-17T14:08:00.155Z,3.93
2019-01-17T14:10:28.289Z,3.03
2019-01-17T14:12:56.465Z,2.60
2019-01-17T14:15:28.813Z,4.23
2019-01-17T14:17:57.028Z,2.80
2019-01-17T14:20:25.182Z,4.03
2019-01-17T14:22:53.382Z,2.60
2019-01-17T14:25:21.872Z,5.60
2019-01-17T14:27:50.364Z,2.17
2019-01-17T14:30:20.070Z,3.03
2019-01-17T14:32:48.570Z,3.23
2019-01-17T14:35:16.703Z,3.83
2019-01-17T14:37:44.930Z,2.83
2019-01-17T14:40:13.470Z,2.17
2019-01-17T14:42:41.967Z,1.70
2019-01-17T14:45:13.873Z,2.00
2019-01-17T14:47:42.365Z,4.57
2019-01-17T14:50:19.739Z,3.40
2019-01-17T14:52:47.869Z,3.33
2019-01-17T14:55:16.308Z,2.23
2019-01-17T14:57:44.866Z,3.50
2019-01-17T15:00:20.327Z,2.83
2019-01-17T15:02:48.885Z,2.67
2019-01-17T15:05:17.055Z,2.87
2019-01-17T15:07:45.186Z,2.87
2019-01-17T15:10:14.879Z,2.60
2019-01-17T15:12:43.344Z,2.87
2019-01-17T15:15:11.577Z,3.43
2019-01-17T15:17:40.177Z,3.07
2019-01-17T15:20:10.079Z,3.20
2019-01-17T15:22:38.335Z,2.23
2019-01-17T15:25:07.048Z,2.97
2019-01-17T15:27:35.499Z,2.63
2019-01-17T15:30:05.337Z,3.40
2019-01-17T15:32:33.489Z,2.70
2019-01-17T15:35:01.661Z,1.87
2019-01-17T15:37:29.848Z,1.90
2019-01-17T15:39:58.065Z,3.10
2019-01-17T15:42:26.486Z,2.20
2019-01-17T15:44:54.633Z,2.53
2019-01-17T15:47:22.848Z,3.90
2019-01-17T15:49:50.997Z,3.50
2019-01-17T15:52:19.497Z,2.90
2019-01-17T15:54:47.624Z,3.23
2019-01-17T15:57:16.185Z,2.00
2019-01-17T15:59:44.348Z,2.47
2019-01-17T16:02:13.201Z,5.73
2019-01-17T16:04:41.649Z,2.03
2019-01-17T16:07:09.806Z,3.90
2019-01-17T16:09:38.031Z,2.87
2019-01-17T16:12:06.529Z,3.20
2019-01-17T16:14:35.001Z,5.70
2019-01-17T16:17:03.145Z,3.90
2019-01-17T16:19:31.332Z,3.17
2019-01-17T16:21:59.494Z,1.70
2019-01-17T16:24:27.678Z,3.10
2019-01-17T16:26:56.133Z,3.37
2019-01-17T16:29:24.617Z,4.60
2019-01-17T16:31:52.834Z,3.07
2019-01-17T16:34:20.986Z,2.93
2019-01-17T16:36:49.453Z,3.10
2019-01-17T16:39:17.650Z,2.30
2019-01-17T16:41:45.848Z,2.40
2019-01-17T16:44:14.357Z,2.70
2019-01-17T16:46:42.844Z,3.20
2019-01-17T16:49:11.081Z,3.00
2019-01-17T16:51:39.253Z,2.50
2019-01-17T16:54:07.723Z,4.40
2019-01-17T16:56:35.968Z,2.60
2019-01-17T16:59:04.765Z,2.63
2019-01-17T17:01:32.902Z,7.40
2019-01-17T17:04:01.266Z,13.23
2019-01-17T17:06:29.528Z,13.87
2019-01-17T17:08:58.004Z,6.33
2019-01-17T17:11:26.247Z,5.00
2019-01-17T17:13:54.406Z,5.40
2019-01-17T17:16:22.543Z,7.63
2019-01-17T17:18:51.406Z,8.27
2019-01-17T17:21:19.550Z,9.70
2019-01-17T17:23:47.961Z,7.03
2019-01-17T17:26:16.164Z,5.70
2019-01-17T17:28:44.375Z,6.53
2019-01-17T17:31:12.530Z,6.80
2019-01-17T17:33:40.654Z,5.70
2019-01-17T17:36:08.838Z,5.93
2019-01-17T17:38:37.302Z,6.00
2019-01-17T17:41:05.847Z,13.53
2019-01-17T17:43:34.021Z,9.17
2019-01-17T17:46:02.490Z,9.90
2019-01-17T17:48:30.695Z,7.83
2019-01-17T17:50:58.856Z,9.20
2019-01-17T17:53:26.996Z,7.83
2019-01-17T17:55:55.463Z,12.30
2019-01-17T17:58:23.617Z,6.07
2019-01-17T18:00:53.414Z,6.37
2019-01-17T18:03:21.998Z,6.70
2019-01-17T18:05:50.136Z,3.97
2019-01-17T18:08:18.306Z,3.77
2019-01-17T18:10:46.940Z,3.93
2019-01-17T18:13:15.120Z,3.90
2019-01-17T18:15:43.776Z,4.20
2019-01-17T18:18:12.306Z,5.57
2019-01-17T18:20:40.459Z,4.50
2019-01-17T18:23:08.586Z,8.27
2019-01-17T18:25:36.816Z,10.57
2019-01-17T18:28:08.910Z,8.37
2019-01-17T18:30:35.745Z,9.67
2019-01-17T18:33:03.969Z,7.20
2019-01-17T18:35:32.512Z,7.27
2019-01-17T18:38:00.649Z,8.87
2019-01-17T18:40:28.810Z,6.10
2019-01-17T18:42:56.953Z,5.87
2019-01-17T18:45:25.901Z,5.37
2019-01-17T18:47:54.117Z,4.27
2019-01-17T18:50:28.233Z,13.37
2019-01-17T18:52:56.769Z,9.73
2019-01-17T18:55:24.977Z,10.13
2019-01-17T18:57:53.216Z,10.07
2019-01-17T19:00:23.687Z,7.17
2019-01-17T19:02:51.986Z,6.33
2019-01-17T19:05:20.382Z,6.23
2019-01-17T19:07:48.933Z,7.57
2019-01-17T19:10:17.934Z,11.27
2019-01-17T19:12:46.402Z,7.90
2019-01-17T19:15:20.866Z,6.93
2019-01-17T19:17:49.400Z,6.47
2019-01-17T19:20:18.787Z,4.37
2019-01-17T19:22:46.991Z,6.30
2019-01-17T19:25:15.718Z,5.20
2019-01-17T19:27:43.921Z,6.23
2019-01-17T19:30:15.976Z,3.67
2019-01-17T19:32:44.791Z,5.33
2019-01-17T19:35:13.095Z,5.63
2019-01-17T19:37:41.309Z,7.07
2019-01-17T19:40:16.457Z,7.20
2019-01-17T19:42:45.170Z,7.13
2019-01-17T19:45:15.066Z,6.40
2019-01-17T19:47:43.372Z,8.13
2019-01-17T19:50:20.552Z,6.90
2019-01-17T19:52:49.320Z,5.50
2019-01-17T19:55:17.916Z,5.70
2019-01-17T19:57:46.148Z,5.33
2019-01-17T20:00:15.839Z,7.17
2019-01-17T20:02:43.974Z,5.43
2019-01-17T20:05:13.411Z,6.53
2019-01-17T20:07:41.558Z,5.20
2019-01-17T20:10:16.038Z,4.87
2019-01-17T20:12:44.778Z,6.07
2019-01-17T20:15:13.425Z,6.10
2019-01-17T20:17:41.647Z,6.53
2019-01-17T20:20:11.419Z,11.30
2019-01-17T20:22:39.579Z,25.13
2019-01-17T20:25:08.284Z,28.00
2019-01-17T20:27:36.421Z,24.43
2019-01-17T20:30:15.121Z,19.33
2019-01-17T20:32:43.642Z,20.63
2019-01-17T20:35:12.168Z,25.70
2019-01-17T20:37:41.039Z,23.60
2019-01-17T20:40:12.843Z,22.20
2019-01-17T20:42:41.652Z,16.43
2019-01-17T20:45:10.756Z,15.50
2019-01-17T20:47:38.990Z,14.73
2019-01-17T20:50:09.071Z,13.63
2019-01-17T20:52:37.234Z,14.80
2019-01-17T20:55:08.554Z,18.03
2019-01-17T20:57:36.995Z,17.83
2019-01-17T21:00:06.681Z,15.43
2019-01-17T21:02:35.173Z,11.43
2019-01-17T21:05:04.221Z,12.10
2019-01-17T21:07:32.345Z,13.83
2019-01-17T21:10:00.514Z,16.93
2019-01-17T21:12:28.668Z,17.87
2019-01-17T21:14:57.219Z,16.80
2019-01-17T21:17:25.375Z,19.90
2019-01-17T21:19:53.555Z,21.03
2019-01-17T21:22:22.128Z,19.63
2019-01-17T21:24:50.660Z,17.70
2019-01-17T21:27:18.811Z,14.50
2019-01-17T21:29:47.203Z,12.80
2019-01-17T21:32:15.362Z,10.27
2019-01-17T21:34:43.582Z,10.27
2019-01-17T21:37:12.005Z,13.13
2019-01-17T21:39:40.494Z,12.70
2019-01-17T21:42:08.959Z,12.47
2019-01-17T21:44:37.133Z,14.47
2019-01-17T21:47:05.558Z,12.13
2019-01-17T21:49:34.054Z,12.37
2019-01-17T21:52:02.233Z,13.73
2019-01-17T21:54:30.400Z,10.73
2019-01-17T21:56:58.897Z,8.20
2019-01-17T21:59:27.394Z,6.90
2019-01-17T22:01:55.529Z,6.53
2019-01-17T22:04:23.694Z,7.53
2019-01-17T22:06:51.863Z,8.77
2019-01-17T22:09:20.012Z,7.97
2019-01-17T22:11:48.174Z,8.60
2019-01-17T22:14:16.642Z,6.27
2019-01-17T22:16:44.780Z,8.67
2019-01-17T22:19:12.927Z,7.17
2019-01-17T22:21:41.430Z,7.93
2019-01-17T22:24:10.164Z,5.67
2019-01-17T22:26:38.723Z,5.77
2019-01-17T22:29:06.853Z,5.90
2019-01-17T22:31:35.027Z,5.63
2019-01-17T22:34:03.873Z,6.40
2019-01-17T22:36:32.050Z,7.10
2019-01-17T22:39:00.167Z,8.43
2019-01-17T22:41:28.341Z,7.17
2019-01-17T22:43:56.536Z,6.87
2019-01-17T22:46:25.343Z,6.07
2019-01-17T22:48:53.520Z,8.50
2019-01-17T22:51:21.649Z,7.27
2019-01-17T22:53:50.126Z,7.40
2019-01-17T22:56:18.337Z,6.40
2019-01-17T22:58:46.495Z,6.47
2019-01-17T23:01:15.823Z,6.77
2019-01-17T23:03:43.998Z,6.80
2019-01-17T23:06:12.496Z,6.90
2019-01-17T23:08:40.661Z,5.97
2019-01-17T23:11:08.902Z,6.53
2019-01-17T23:13:37.331Z,6.53
2019-01-17T23:16:06.426Z,6.90
2019-01-17T23:18:35.408Z,5.53
2019-01-17T23:21:03.609Z,5.63
2019-01-17T23:23:31.763Z,6.50
2019-01-17T23:25:59.907Z,6.60
2019-01-17T23:28:28.420Z,7.73
2019-01-17T23:30:57.184Z,8.33
2019-01-17T23:33:25.322Z,8.67
2019-01-17T23:35:53.470Z,7.40
2019-01-17T23:38:21.959Z,8.17
2019-01-17T23:40:50.092Z,7.80
2019-01-17T23:43:18.590Z,10.37
2019-01-17T23:45:46.717Z,8.70
2019-01-17T23:48:15.220Z,7.33
2019-01-17T23:50:43.627Z,9.23
2019-01-17T23:53:12.166Z,10.57
2019-01-17T23:55:40.403Z,6.73
2019-01-17T23:58:08.563Z,7.13
